sensor_id;sensor_type;location;lat;lon;timestamp;temperature;humidity
33382;DHT22;21342;48.786;9.166;2022-11-15T00:02:21;10.00;99.90
33382;DHT22;21342;48.786;9.166;2022-11-15T00:04:49;10.00;99.90
33382;DHT22;21342;48.786;9.166;2022-11-15T00:07:16;9.90;99.90
33382;DHT22;21342;48.786;9.166;2022-11-15T00:09:44;10.00;99.90
33382;DHT22;21342;48.786;9.166;2022-11-15T00:12:11;10.00;99.90
33382;DHT22;21342;48.786;9.166;2022-11-15T00:14:38;10.00;99.90
33382;DHT22;21342;48.786;9.166;2022-11-15T00:17:05;10.00;99.90
33382;DHT22;21342;48.786;9.166;2022-11-15T00:19:33;9.90;99.90
33382;DHT22;21342;48.786;9.166;2022-11-15T00:22:00;9.90;99.90
33382;DHT22;21342;48.786;9.166;2022-11-15T00:24:27;9.90;99.90
33382;DHT22;21342;48.786;9.166;2022-11-15T00:26:56;10.00;99.90
33382;DHT22;21342;48.786;9.166;2022-11-15T00:29:23;10.10;99.90
33382;DHT22;21342;48.786;9.166;2022-11-15T00:31:50;10.10;99.90
33382;DHT22;21342;48.786;9.166;2022-11-15T00:34:18;10.20;99.90
33382;DHT22;21342;48.786;9.166;2022-11-15T00:39:12;10.20;99.90
33382;DHT22;21342;48.786;9.166;2022-11-15T00:41:39;10.30;99.90
33382;DHT22;21342;48.786;9.166;2022-11-15T00:44:08;10.30;99.90
33382;DHT22;21342;48.786;9.166;2022-11-15T00:46:35;10.30;99.90
33382;DHT22;21342;48.786;9.166;2022-11-15T00:49:02;10.40;99.90
33382;DHT22;21342;48.786;9.166;2022-11-15T00:51:29;10.40;99.90
33382;DHT22;21342;48.786;9.166;2022-11-15T00:53:56;10.50;99.90
33382;DHT22;21342;48.786;9.166;2022-11-15T00:56:24;10.50;99.90
33382;DHT22;21342;48.786;9.166;2022-11-15T00:58:51;10.50;99.90
33382;DHT22;21342;48.786;9.166;2022-11-15T01:01:20;10.60;99.90
33382;DHT22;21342;48.786;9.166;2022-11-15T01:03:47;10.60;99.90
33382;DHT22;21342;48.786;9.166;2022-11-15T01:06:14;10.60;99.90
33382;DHT22;21342;48.786;9.166;2022-11-15T01:08:41;10.70;99.90
33382;DHT22;21342;48.786;9.166;2022-11-15T01:11:11;10.80;99.90
33382;DHT22;21342;48.786;9.166;2022-11-15T01:13:39;10.80;99.90
33382;DHT22;21342;48.786;9.166;2022-11-15T01:16:08;10.80;99.90
33382;DHT22;21342;48.786;9.166;2022-11-15T01:18:37;10.80;99.90
33382;DHT22;21342;48.786;9.166;2022-11-15T01:21:06;10.60;99.90
33382;DHT22;21342;48.786;9.166;2022-11-15T01:23:33;10.40;99.90
33382;DHT22;21342;48.786;9.166;2022-11-15T01:26:00;10.40;99.90
33382;DHT22;21342;48.786;9.166;2022-11-15T01:28:30;10.30;99.90
33382;DHT22;21342;48.786;9.166;2022-11-15T01:30:58;10.20;99.90
33382;DHT22;21342;48.786;9.166;2022-11-15T01:33:26;10.10;99.90
33382;DHT22;21342;48.786;9.166;2022-11-15T01:35:55;10.00;99.90
33382;DHT22;21342;48.786;9.166;2022-11-15T01:38:23;9.90;99.90
33382;DHT22;21342;48.786;9.166;2022-11-15T01:40:50;9.80;99.90
33382;DHT22;21342;48.786;9.166;2022-11-15T01:43:25;9.80;99.90
33382;DHT22;21342;48.786;9.166;2022-11-15T01:45:56;9.60;99.90
33382;DHT22;21342;48.786;9.166;2022-11-15T01:48:30;9.60;99.90
33382;DHT22;21342;48.786;9.166;2022-11-15T01:51:02;9.40;99.90
33382;DHT22;21342;48.786;9.166;2022-11-15T01:53:32;9.50;99.90
33382;DHT22;21342;48.786;9.166;2022-11-15T01:56:02;9.40;99.90
33382;DHT22;21342;48.786;9.166;2022-11-15T01:58:34;9.40;99.90
33382;DHT22;21342;48.786;9.166;2022-11-15T02:01:02;9.40;99.90
33382;DHT22;21342;48.786;9.166;2022-11-15T02:03:34;9.40;99.90
33382;DHT22;21342;48.786;9.166;2022-11-15T02:06:05;9.30;99.90
33382;DHT22;21342;48.786;9.166;2022-11-15T02:08:32;9.30;99.90
33382;DHT22;21342;48.786;9.166;2022-11-15T02:10:59;9.30;99.90
33382;DHT22;21342;48.786;9.166;2022-11-15T02:13:26;9.30;99.90
33382;DHT22;21342;48.786;9.166;2022-11-15T02:16:00;9.30;99.90
33382;DHT22;21342;48.786;9.166;2022-11-15T02:18:34;9.40;99.90
33382;DHT22;21342;48.786;9.166;2022-11-15T02:21:13;9.30;99.90
33382;DHT22;21342;48.786;9.166;2022-11-15T02:24:31;9.40;99.90
33382;DHT22;21342;48.786;9.166;2022-11-15T02:30:24;9.20;99.90
33382;DHT22;21342;48.786;9.166;2022-11-15T02:32:58;9.20;99.90
33382;DHT22;21342;48.786;9.166;2022-11-15T02:35:36;9.20;99.90
33382;DHT22;21342;48.786;9.166;2022-11-15T02:38:08;9.20;99.90
33382;DHT22;21342;48.786;9.166;2022-11-15T02:40:40;9.30;99.90
33382;DHT22;21342;48.786;9.166;2022-11-15T02:43:11;9.40;99.90
33382;DHT22;21342;48.786;9.166;2022-11-15T02:46:01;9.30;99.90
33382;DHT22;21342;48.786;9.166;2022-11-15T02:48:32;9.40;99.90
33382;DHT22;21342;48.786;9.166;2022-11-15T02:51:00;9.30;99.90
33382;DHT22;21342;48.786;9.166;2022-11-15T02:53:28;9.30;99.90
33382;DHT22;21342;48.786;9.166;2022-11-15T02:55:56;9.30;99.90
33382;DHT22;21342;48.786;9.166;2022-11-15T03:01:37;9.30;99.90
33382;DHT22;21342;48.786;9.166;2022-11-15T03:04:13;9.30;99.90
33382;DHT22;21342;48.786;9.166;2022-11-15T03:06:49;9.40;99.90
33382;DHT22;21342;48.786;9.166;2022-11-15T03:09:26;9.40;99.90
33382;DHT22;21342;48.786;9.166;2022-11-15T03:11:59;9.30;99.90
33382;DHT22;21342;48.786;9.166;2022-11-15T03:14:34;9.30;99.90
33382;DHT22;21342;48.786;9.166;2022-11-15T03:17:08;9.20;99.90
33382;DHT22;21342;48.786;9.166;2022-11-15T03:19:43;9.30;99.90
33382;DHT22;21342;48.786;9.166;2022-11-15T03:22:13;9.30;99.90
33382;DHT22;21342;48.786;9.166;2022-11-15T03:24:43;9.20;99.90
33382;DHT22;21342;48.786;9.166;2022-11-15T03:27:13;9.10;99.90
33382;DHT22;21342;48.786;9.166;2022-11-15T03:29:45;9.10;99.90
33382;DHT22;21342;48.786;9.166;2022-11-15T03:32:20;9.10;99.90
33382;DHT22;21342;48.786;9.166;2022-11-15T03:34:51;9.10;99.90
33382;DHT22;21342;48.786;9.166;2022-11-15T03:37:24;9.10;99.90
33382;DHT22;21342;48.786;9.166;2022-11-15T03:39:51;9.00;99.90
33382;DHT22;21342;48.786;9.166;2022-11-15T03:42:22;9.00;99.90
33382;DHT22;21342;48.786;9.166;2022-11-15T03:44:55;9.00;99.90
33382;DHT22;21342;48.786;9.166;2022-11-15T03:47:30;9.00;99.90
33382;DHT22;21342;48.786;9.166;2022-11-15T03:50:02;9.00;99.90
33382;DHT22;21342;48.786;9.166;2022-11-15T03:52:32;8.90;99.90
33382;DHT22;21342;48.786;9.166;2022-11-15T03:55:01;8.90;99.90
33382;DHT22;21342;48.786;9.166;2022-11-15T03:57:29;8.90;99.90
33382;DHT22;21342;48.786;9.166;2022-11-15T03:59:57;8.90;99.90
33382;DHT22;21342;48.786;9.166;2022-11-15T04:02:25;8.90;99.90
33382;DHT22;21342;48.786;9.166;2022-11-15T04:04:53;9.00;99.90
33382;DHT22;21342;48.786;9.166;2022-11-15T04:07:20;9.10;99.90
33382;DHT22;21342;48.786;9.166;2022-11-15T04:09:48;9.10;99.90
33382;DHT22;21342;48.786;9.166;2022-11-15T04:12:31;9.00;99.90
33382;DHT22;21342;48.786;9.166;2022-11-15T04:15:00;9.00;99.90
33382;DHT22;21342;48.786;9.166;2022-11-15T04:17:39;9.00;99.90
33382;DHT22;21342;48.786;9.166;2022-11-15T04:20:09;9.00;99.90
33382;DHT22;21342;48.786;9.166;2022-11-15T04:22:54;9.00;99.90
33382;DHT22;21342;48.786;9.166;2022-11-15T04:25:39;9.00;99.90
33382;DHT22;21342;48.786;9.166;2022-11-15T04:28:07;9.10;99.90
33382;DHT22;21342;48.786;9.166;2022-11-15T04:30:34;9.10;99.90
33382;DHT22;21342;48.786;9.166;2022-11-15T04:33:02;9.10;99.90
33382;DHT22;21342;48.786;9.166;2022-11-15T04:35:29;9.10;99.90
33382;DHT22;21342;48.786;9.166;2022-11-15T04:37:57;9.10;99.90
33382;DHT22;21342;48.786;9.166;2022-11-15T04:40:24;9.10;99.90
33382;DHT22;21342;48.786;9.166;2022-11-15T04:42:52;9.10;99.90
33382;DHT22;21342;48.786;9.166;2022-11-15T04:45:19;9.00;99.90
33382;DHT22;21342;48.786;9.166;2022-11-15T04:47:46;9.10;99.90
33382;DHT22;21342;48.786;9.166;2022-11-15T04:50:15;9.10;99.90
33382;DHT22;21342;48.786;9.166;2022-11-15T04:52:46;9.00;99.90
33382;DHT22;21342;48.786;9.166;2022-11-15T04:55:16;9.00;99.90
33382;DHT22;21342;48.786;9.166;2022-11-15T04:57:43;9.00;99.90
33382;DHT22;21342;48.786;9.166;2022-11-15T05:00:12;9.00;99.90
33382;DHT22;21342;48.786;9.166;2022-11-15T05:02:40;8.90;99.90
33382;DHT22;21342;48.786;9.166;2022-11-15T05:05:26;8.90;99.90
33382;DHT22;21342;48.786;9.166;2022-11-15T05:07:53;8.80;99.90
33382;DHT22;21342;48.786;9.166;2022-11-15T05:10:20;8.80;99.90
33382;DHT22;21342;48.786;9.166;2022-11-15T05:12:47;8.80;99.90
33382;DHT22;21342;48.786;9.166;2022-11-15T05:15:15;8.80;99.90
33382;DHT22;21342;48.786;9.166;2022-11-15T05:17:42;8.70;99.90
33382;DHT22;21342;48.786;9.166;2022-11-15T05:20:10;8.80;99.90
33382;DHT22;21342;48.786;9.166;2022-11-15T05:22:39;8.80;99.90
33382;DHT22;21342;48.786;9.166;2022-11-15T05:25:06;8.80;99.90
33382;DHT22;21342;48.786;9.166;2022-11-15T05:27:34;8.80;99.90
33382;DHT22;21342;48.786;9.166;2022-11-15T05:30:01;8.80;99.90
33382;DHT22;21342;48.786;9.166;2022-11-15T05:32:29;8.80;99.90
33382;DHT22;21342;48.786;9.166;2022-11-15T05:34:56;8.80;99.90
33382;DHT22;21342;48.786;9.166;2022-11-15T05:37:23;8.70;99.90
33382;DHT22;21342;48.786;9.166;2022-11-15T05:39:51;8.70;99.90
33382;DHT22;21342;48.786;9.166;2022-11-15T05:42:19;8.70;99.90
33382;DHT22;21342;48.786;9.166;2022-11-15T05:44:47;8.80;99.90
33382;DHT22;21342;48.786;9.166;2022-11-15T05:47:25;8.80;99.90
33382;DHT22;21342;48.786;9.166;2022-11-15T05:49:55;8.80;99.90
33382;DHT22;21342;48.786;9.166;2022-11-15T05:52:25;8.90;99.90
33382;DHT22;21342;48.786;9.166;2022-11-15T05:54:57;8.90;99.90
33382;DHT22;21342;48.786;9.166;2022-11-15T05:57:24;8.90;99.90
33382;DHT22;21342;48.786;9.166;2022-11-15T05:59:52;8.90;99.90
33382;DHT22;21342;48.786;9.166;2022-11-15T06:02:20;8.90;99.90
33382;DHT22;21342;48.786;9.166;2022-11-15T06:04:47;8.90;99.90
33382;DHT22;21342;48.786;9.166;2022-11-15T06:07:14;8.80;99.90
33382;DHT22;21342;48.786;9.166;2022-11-15T06:09:41;8.80;99.90
33382;DHT22;21342;48.786;9.166;2022-11-15T06:12:10;8.90;99.90
33382;DHT22;21342;48.786;9.166;2022-11-15T06:14:37;8.90;99.90
33382;DHT22;21342;48.786;9.166;2022-11-15T06:17:04;9.00;99.90
33382;DHT22;21342;48.786;9.166;2022-11-15T06:19:31;9.00;99.90
33382;DHT22;21342;48.786;9.166;2022-11-15T06:21:59;9.00;99.90
33382;DHT22;21342;48.786;9.166;2022-11-15T06:24:26;9.00;99.90
33382;DHT22;21342;48.786;9.166;2022-11-15T06:26:53;8.90;99.90
33382;DHT22;21342;48.786;9.166;2022-11-15T06:29:22;8.90;99.90
33382;DHT22;21342;48.786;9.166;2022-11-15T06:31:49;8.80;99.90
33382;DHT22;21342;48.786;9.166;2022-11-15T06:34:16;8.80;99.90
33382;DHT22;21342;48.786;9.166;2022-11-15T06:36:43;8.80;99.90
33382;DHT22;21342;48.786;9.166;2022-11-15T06:39:11;8.90;99.90
33382;DHT22;21342;48.786;9.166;2022-11-15T06:41:38;8.90;99.90
33382;DHT22;21342;48.786;9.166;2022-11-15T06:44:05;8.90;99.90
33382;DHT22;21342;48.786;9.166;2022-11-15T06:46:34;8.80;99.90
33382;DHT22;21342;48.786;9.166;2022-11-15T06:49:02;8.90;99.90
33382;DHT22;21342;48.786;9.166;2022-11-15T06:51:29;8.90;99.90
33382;DHT22;21342;48.786;9.166;2022-11-15T06:53:56;8.90;99.90
33382;DHT22;21342;48.786;9.166;2022-11-15T06:56:23;8.90;99.90
33382;DHT22;21342;48.786;9.166;2022-11-15T06:58:50;8.90;99.90
33382;DHT22;21342;48.786;9.166;2022-11-15T07:01:17;8.90;99.90
33382;DHT22;21342;48.786;9.166;2022-11-15T07:03:46;9.00;99.90
33382;DHT22;21342;48.786;9.166;2022-11-15T07:06:13;9.00;99.90
33382;DHT22;21342;48.786;9.166;2022-11-15T07:08:40;9.00;99.90
33382;DHT22;21342;48.786;9.166;2022-11-15T07:11:08;9.10;99.90
33382;DHT22;21342;48.786;9.166;2022-11-15T07:13:36;9.10;99.90
33382;DHT22;21342;48.786;9.166;2022-11-15T07:16:04;9.10;99.90
33382;DHT22;21342;48.786;9.166;2022-11-15T07:18:34;9.20;99.90
33382;DHT22;21342;48.786;9.166;2022-11-15T07:21:03;9.30;99.90
33382;DHT22;21342;48.786;9.166;2022-11-15T07:23:31;9.30;99.90
33382;DHT22;21342;48.786;9.166;2022-11-15T07:25:58;9.30;99.90
33382;DHT22;21342;48.786;9.166;2022-11-15T07:28:26;9.40;99.90
33382;DHT22;21342;48.786;9.166;2022-11-15T07:30:54;9.60;99.90
33382;DHT22;21342;48.786;9.166;2022-11-15T07:33:21;9.70;99.90
33382;DHT22;21342;48.786;9.166;2022-11-15T07:35:48;9.90;99.90
33382;DHT22;21342;48.786;9.166;2022-11-15T07:38:17;10.00;99.90
33382;DHT22;21342;48.786;9.166;2022-11-15T07:40:46;10.20;99.90
33382;DHT22;21342;48.786;9.166;2022-11-15T07:43:13;10.40;99.90
33382;DHT22;21342;48.786;9.166;2022-11-15T07:45:41;10.40;99.90
33382;DHT22;21342;48.786;9.166;2022-11-15T07:48:09;10.70;99.90
33382;DHT22;21342;48.786;9.166;2022-11-15T07:50:36;10.90;99.90
33382;DHT22;21342;48.786;9.166;2022-11-15T07:55:32;11.10;99.90
33382;DHT22;21342;48.786;9.166;2022-11-15T07:58:03;11.10;99.90
33382;DHT22;21342;48.786;9.166;2022-11-15T08:00:31;11.20;99.90
33382;DHT22;21342;48.786;9.166;2022-11-15T08:03:05;11.30;99.90
33382;DHT22;21342;48.786;9.166;2022-11-15T08:05:33;11.40;99.90
33382;DHT22;21342;48.786;9.166;2022-11-15T08:08:01;11.50;99.90
33382;DHT22;21342;48.786;9.166;2022-11-15T08:10:29;11.50;99.90
33382;DHT22;21342;48.786;9.166;2022-11-15T08:12:59;11.60;99.90
33382;DHT22;21342;48.786;9.166;2022-11-15T08:15:28;11.60;99.90
33382;DHT22;21342;48.786;9.166;2022-11-15T08:17:55;11.80;99.90
33382;DHT22;21342;48.786;9.166;2022-11-15T08:20:23;11.80;99.90
33382;DHT22;21342;48.786;9.166;2022-11-15T08:22:51;11.90;99.90
33382;DHT22;21342;48.786;9.166;2022-11-15T08:25:18;12.00;99.90
33382;DHT22;21342;48.786;9.166;2022-11-15T08:27:45;12.00;99.90
33382;DHT22;21342;48.786;9.166;2022-11-15T08:30:14;12.00;99.90
33382;DHT22;21342;48.786;9.166;2022-11-15T08:32:42;12.00;99.90
33382;DHT22;21342;48.786;9.166;2022-11-15T08:35:09;12.10;99.90
33382;DHT22;21342;48.786;9.166;2022-11-15T08:37:36;12.00;99.90
33382;DHT22;21342;48.786;9.166;2022-11-15T08:40:05;12.00;99.90
33382;DHT22;21342;48.786;9.166;2022-11-15T08:42:32;12.10;99.90
33382;DHT22;21342;48.786;9.166;2022-11-15T08:45:00;12.10;99.90
33382;DHT22;21342;48.786;9.166;2022-11-15T08:47:28;12.20;99.90
33382;DHT22;21342;48.786;9.166;2022-11-15T08:49:55;12.10;99.90
33382;DHT22;21342;48.786;9.166;2022-11-15T08:52:23;12.20;99.90
33382;DHT22;21342;48.786;9.166;2022-11-15T08:54:50;12.30;99.90
33382;DHT22;21342;48.786;9.166;2022-11-15T08:57:17;12.40;99.90
33382;DHT22;21342;48.786;9.166;2022-11-15T08:59:44;12.40;99.90
33382;DHT22;21342;48.786;9.166;2022-11-15T09:02:12;12.50;99.90
33382;DHT22;21342;48.786;9.166;2022-11-15T09:04:46;12.60;99.90
33382;DHT22;21342;48.786;9.166;2022-11-15T09:07:14;12.80;99.90
33382;DHT22;21342;48.786;9.166;2022-11-15T09:09:41;12.90;99.90
33382;DHT22;21342;48.786;9.166;2022-11-15T09:12:08;13.00;99.90
33382;DHT22;21342;48.786;9.166;2022-11-15T09:14:35;13.00;99.90
33382;DHT22;21342;48.786;9.166;2022-11-15T09:17:03;13.20;99.90
33382;DHT22;21342;48.786;9.166;2022-11-15T09:19:30;13.40;99.90
33382;DHT22;21342;48.786;9.166;2022-11-15T09:21:59;13.40;99.90
33382;DHT22;21342;48.786;9.166;2022-11-15T09:24:26;13.60;99.90
33382;DHT22;21342;48.786;9.166;2022-11-15T09:26:53;13.60;99.90
33382;DHT22;21342;48.786;9.166;2022-11-15T09:29:20;13.70;99.90
33382;DHT22;21342;48.786;9.166;2022-11-15T09:31:47;13.90;99.90
33382;DHT22;21342;48.786;9.166;2022-11-15T09:34:15;14.00;99.90
33382;DHT22;21342;48.786;9.166;2022-11-15T09:36:42;14.10;99.90
33382;DHT22;21342;48.786;9.166;2022-11-15T09:39:10;14.20;99.90
33382;DHT22;21342;48.786;9.166;2022-11-15T09:44:33;14.40;99.90
33382;DHT22;21342;48.786;9.166;2022-11-15T09:47:17;14.50;99.90
33382;DHT22;21342;48.786;9.166;2022-11-15T09:49:52;14.60;99.90
33382;DHT22;21342;48.786;9.166;2022-11-15T09:52:19;14.50;99.90
33382;DHT22;21342;48.786;9.166;2022-11-15T09:54:50;14.50;99.90
33382;DHT22;21342;48.786;9.166;2022-11-15T09:57:21;14.70;99.90
33382;DHT22;21342;48.786;9.166;2022-11-15T10:00:04;15.00;99.90
33382;DHT22;21342;48.786;9.166;2022-11-15T10:02:46;15.20;99.90
33382;DHT22;21342;48.786;9.166;2022-11-15T10:05:18;15.30;99.90
33382;DHT22;21342;48.786;9.166;2022-11-15T10:07:50;15.30;99.90
33382;DHT22;21342;48.786;9.166;2022-11-15T10:10:27;15.20;99.90
33382;DHT22;21342;48.786;9.166;2022-11-15T10:12:57;15.20;99.90
33382;DHT22;21342;48.786;9.166;2022-11-15T10:15:25;15.30;99.90
33382;DHT22;21342;48.786;9.166;2022-11-15T10:18:09;15.20;99.90
33382;DHT22;21342;48.786;9.166;2022-11-15T10:20:46;15.10;99.90
33382;DHT22;21342;48.786;9.166;2022-11-15T10:23:16;15.00;99.90
33382;DHT22;21342;48.786;9.166;2022-11-15T10:25:45;15.00;99.90
33382;DHT22;21342;48.786;9.166;2022-11-15T10:28:16;15.10;99.90
33382;DHT22;21342;48.786;9.166;2022-11-15T10:30:45;15.00;99.90
33382;DHT22;21342;48.786;9.166;2022-11-15T10:33:29;15.00;99.90
33382;DHT22;21342;48.786;9.166;2022-11-15T10:36:18;15.00;99.90
33382;DHT22;21342;48.786;9.166;2022-11-15T10:38:54;15.00;99.90
33382;DHT22;21342;48.786;9.166;2022-11-15T10:41:32;14.90;99.90
33382;DHT22;21342;48.786;9.166;2022-11-15T10:47:22;14.70;99.90
33382;DHT22;21342;48.786;9.166;2022-11-15T10:49:57;14.80;99.90
33382;DHT22;21342;48.786;9.166;2022-11-15T10:52:24;14.80;99.90
33382;DHT22;21342;48.786;9.166;2022-11-15T10:54:54;14.90;99.90
33382;DHT22;21342;48.786;9.166;2022-11-15T10:57:26;14.80;99.90
33382;DHT22;21342;48.786;9.166;2022-11-15T10:59:56;14.80;99.90
33382;DHT22;21342;48.786;9.166;2022-11-15T11:02:32;14.80;99.90
33382;DHT22;21342;48.786;9.166;2022-11-15T11:05:02;14.80;99.90
33382;DHT22;21342;48.786;9.166;2022-11-15T11:07:32;14.80;99.90
33382;DHT22;21342;48.786;9.166;2022-11-15T11:10:03;14.70;99.90
33382;DHT22;21342;48.786;9.166;2022-11-15T11:12:34;14.70;99.90
33382;DHT22;21342;48.786;9.166;2022-11-15T11:15:10;14.70;99.90
33382;DHT22;21342;48.786;9.166;2022-11-15T11:20:38;14.70;99.90
33382;DHT22;21342;48.786;9.166;2022-11-15T11:23:21;14.70;99.90
33382;DHT22;21342;48.786;9.166;2022-11-15T11:25:58;14.70;99.90
33382;DHT22;21342;48.786;9.166;2022-11-15T11:28:39;14.80;99.90
33382;DHT22;21342;48.786;9.166;2022-11-15T11:31:20;14.80;99.90
33382;DHT22;21342;48.786;9.166;2022-11-15T11:34:01;14.90;99.90
33382;DHT22;21342;48.786;9.166;2022-11-15T11:36:39;14.90;99.90
33382;DHT22;21342;48.786;9.166;2022-11-15T11:39:21;14.80;99.90
33382;DHT22;21342;48.786;9.166;2022-11-15T11:41:58;14.90;99.90
33382;DHT22;21342;48.786;9.166;2022-11-15T11:44:41;14.90;99.90
33382;DHT22;21342;48.786;9.166;2022-11-15T11:47:11;14.90;99.90
33382;DHT22;21342;48.786;9.166;2022-11-15T11:49:44;15.10;99.90
33382;DHT22;21342;48.786;9.166;2022-11-15T11:52:16;15.10;99.90
33382;DHT22;21342;48.786;9.166;2022-11-15T11:54:55;15.30;99.90
33382;DHT22;21342;48.786;9.166;2022-11-15T11:57:33;15.30;99.90
33382;DHT22;21342;48.786;9.166;2022-11-15T12:00:09;15.40;99.90
33382;DHT22;21342;48.786;9.166;2022-11-15T12:02:42;15.30;99.90
33382;DHT22;21342;48.786;9.166;2022-11-15T12:05:15;15.30;99.90
33382;DHT22;21342;48.786;9.166;2022-11-15T12:07:43;15.50;99.90
33382;DHT22;21342;48.786;9.166;2022-11-15T12:10:19;15.60;99.90
33382;DHT22;21342;48.786;9.166;2022-11-15T12:12:54;15.60;99.90
33382;DHT22;21342;48.786;9.166;2022-11-15T12:15:25;15.60;99.90
33382;DHT22;21342;48.786;9.166;2022-11-15T12:17:55;15.60;99.90
33382;DHT22;21342;48.786;9.166;2022-11-15T12:20:25;15.50;99.90
33382;DHT22;21342;48.786;9.166;2022-11-15T12:22:57;15.40;99.90
33382;DHT22;21342;48.786;9.166;2022-11-15T12:25:30;15.30;99.90
33382;DHT22;21342;48.786;9.166;2022-11-15T12:28:03;15.30;99.90
33382;DHT22;21342;48.786;9.166;2022-11-15T12:30:44;15.30;99.90
33382;DHT22;21342;48.786;9.166;2022-11-15T12:33:34;15.30;99.90
33382;DHT22;21342;48.786;9.166;2022-11-15T12:36:04;15.30;99.90
33382;DHT22;21342;48.786;9.166;2022-11-15T12:38:56;15.30;99.90
33382;DHT22;21342;48.786;9.166;2022-11-15T12:41:27;15.20;99.90
33382;DHT22;21342;48.786;9.166;2022-11-15T12:43:55;15.20;99.90
33382;DHT22;21342;48.786;9.166;2022-11-15T12:47:00;15.20;99.90
33382;DHT22;21342;48.786;9.166;2022-11-15T12:49:46;15.20;99.90
33382;DHT22;21342;48.786;9.166;2022-11-15T12:52:14;15.20;99.90
33382;DHT22;21342;48.786;9.166;2022-11-15T12:55:02;15.10;99.90
33382;DHT22;21342;48.786;9.166;2022-11-15T12:57:37;15.10;99.90
33382;DHT22;21342;48.786;9.166;2022-11-15T13:03:23;15.10;99.90
33382;DHT22;21342;48.786;9.166;2022-11-15T13:06:10;15.20;99.90
33382;DHT22;21342;48.786;9.166;2022-11-15T13:08:57;15.20;99.90
33382;DHT22;21342;48.786;9.166;2022-11-15T13:11:43;15.00;99.90
33382;DHT22;21342;48.786;9.166;2022-11-15T13:14:46;14.90;99.90
33382;DHT22;21342;48.786;9.166;2022-11-15T13:17:32;15.00;99.90
33382;DHT22;21342;48.786;9.166;2022-11-15T13:20:17;14.90;99.90
33382;DHT22;21342;48.786;9.166;2022-11-15T13:22:46;14.90;99.90
33382;DHT22;21342;48.786;9.166;2022-11-15T13:25:44;14.80;99.90
33382;DHT22;21342;48.786;9.166;2022-11-15T13:28:22;14.70;99.90
33382;DHT22;21342;48.786;9.166;2022-11-15T13:30:51;14.70;99.90
33382;DHT22;21342;48.786;9.166;2022-11-15T13:33:22;14.70;99.90
33382;DHT22;21342;48.786;9.166;2022-11-15T13:35:53;14.80;99.90
33382;DHT22;21342;48.786;9.166;2022-11-15T13:38:27;14.70;99.90
33382;DHT22;21342;48.786;9.166;2022-11-15T13:40:55;14.70;99.90
33382;DHT22;21342;48.786;9.166;2022-11-15T13:43:33;14.70;99.90
33382;DHT22;21342;48.786;9.166;2022-11-15T13:46:12;14.70;99.90
33382;DHT22;21342;48.786;9.166;2022-11-15T13:48:40;14.70;99.90
33382;DHT22;21342;48.786;9.166;2022-11-15T13:51:16;14.70;99.90
33382;DHT22;21342;48.786;9.166;2022-11-15T13:53:47;14.60;99.90
33382;DHT22;21342;48.786;9.166;2022-11-15T13:56:16;14.60;99.90
33382;DHT22;21342;48.786;9.166;2022-11-15T13:58:44;14.70;99.90
33382;DHT22;21342;48.786;9.166;2022-11-15T14:01:16;14.60;99.90
33382;DHT22;21342;48.786;9.166;2022-11-15T14:03:52;14.50;99.90
33382;DHT22;21342;48.786;9.166;2022-11-15T14:06:23;14.50;99.90
33382;DHT22;21342;48.786;9.166;2022-11-15T14:11:51;14.40;99.90
33382;DHT22;21342;48.786;9.166;2022-11-15T14:14:21;14.30;99.90
33382;DHT22;21342;48.786;9.166;2022-11-15T14:16:50;14.30;99.90
33382;DHT22;21342;48.786;9.166;2022-11-15T14:19:38;14.30;99.90
33382;DHT22;21342;48.786;9.166;2022-11-15T14:22:16;14.20;99.90
33382;DHT22;21342;48.786;9.166;2022-11-15T14:24:47;14.20;99.90
33382;DHT22;21342;48.786;9.166;2022-11-15T14:27:29;14.20;99.90
33382;DHT22;21342;48.786;9.166;2022-11-15T14:29:57;14.20;99.90
33382;DHT22;21342;48.786;9.166;2022-11-15T14:32:25;14.10;99.90
33382;DHT22;21342;48.786;9.166;2022-11-15T14:34:55;14.10;99.90
33382;DHT22;21342;48.786;9.166;2022-11-15T14:37:25;14.00;99.90
33382;DHT22;21342;48.786;9.166;2022-11-15T14:39:53;14.00;99.90
33382;DHT22;21342;48.786;9.166;2022-11-15T14:42:21;14.00;99.90
33382;DHT22;21342;48.786;9.166;2022-11-15T14:44:49;14.00;99.90
33382;DHT22;21342;48.786;9.166;2022-11-15T14:47:16;14.00;99.90
33382;DHT22;21342;48.786;9.166;2022-11-15T14:49:44;14.00;99.90
33382;DHT22;21342;48.786;9.166;2022-11-15T14:52:27;14.00;99.90
33382;DHT22;21342;48.786;9.166;2022-11-15T14:54:55;13.90;99.90
33382;DHT22;21342;48.786;9.166;2022-11-15T14:57:23;14.00;99.90
33382;DHT22;21342;48.786;9.166;2022-11-15T14:59:51;13.90;99.90
33382;DHT22;21342;48.786;9.166;2022-11-15T15:02:20;13.80;99.90
33382;DHT22;21342;48.786;9.166;2022-11-15T15:04:47;13.80;99.90
33382;DHT22;21342;48.786;9.166;2022-11-15T15:07:15;13.80;99.90
33382;DHT22;21342;48.786;9.166;2022-11-15T15:09:44;13.70;99.90
33382;DHT22;21342;48.786;9.166;2022-11-15T15:12:15;13.60;99.90
33382;DHT22;21342;48.786;9.166;2022-11-15T15:14:43;13.60;99.90
33382;DHT22;21342;48.786;9.166;2022-11-15T15:17:11;13.60;99.90
33382;DHT22;21342;48.786;9.166;2022-11-15T15:19:38;13.60;99.90
33382;DHT22;21342;48.786;9.166;2022-11-15T15:22:05;13.70;99.90
33382;DHT22;21342;48.786;9.166;2022-11-15T15:24:32;13.60;99.90
33382;DHT22;21342;48.786;9.166;2022-11-15T15:27:01;13.60;99.90
33382;DHT22;21342;48.786;9.166;2022-11-15T15:29:28;13.70;99.90
33382;DHT22;21342;48.786;9.166;2022-11-15T15:31:55;13.60;99.90
33382;DHT22;21342;48.786;9.166;2022-11-15T15:34:22;13.50;99.90
33382;DHT22;21342;48.786;9.166;2022-11-15T15:36:50;13.50;99.90
33382;DHT22;21342;48.786;9.166;2022-11-15T15:39:32;13.40;99.90
33382;DHT22;21342;48.786;9.166;2022-11-15T15:42:01;13.40;99.90
33382;DHT22;21342;48.786;9.166;2022-11-15T15:44:29;13.30;99.90
33382;DHT22;21342;48.786;9.166;2022-11-15T15:46:56;13.10;99.90
33382;DHT22;21342;48.786;9.166;2022-11-15T15:49:24;13.10;99.90
33382;DHT22;21342;48.786;9.166;2022-11-15T15:51:51;13.00;99.90
33382;DHT22;21342;48.786;9.166;2022-11-15T15:54:18;13.00;99.90
33382;DHT22;21342;48.786;9.166;2022-11-15T15:56:46;13.00;99.90
33382;DHT22;21342;48.786;9.166;2022-11-15T15:59:14;13.00;99.90
33382;DHT22;21342;48.786;9.166;2022-11-15T16:01:41;12.90;99.90
33382;DHT22;21342;48.786;9.166;2022-11-15T16:04:09;12.90;99.90
33382;DHT22;21342;48.786;9.166;2022-11-15T16:06:37;12.90;99.90
33382;DHT22;21342;48.786;9.166;2022-11-15T16:09:05;12.90;99.90
33382;DHT22;21342;48.786;9.166;2022-11-15T16:11:32;12.80;99.90
33382;DHT22;21342;48.786;9.166;2022-11-15T16:13:59;13.00;99.90
33382;DHT22;21342;48.786;9.166;2022-11-15T16:16:28;13.00;99.90
33382;DHT22;21342;48.786;9.166;2022-11-15T16:18:55;13.00;99.90
33382;DHT22;21342;48.786;9.166;2022-11-15T16:21:22;12.90;99.90
33382;DHT22;21342;48.786;9.166;2022-11-15T16:23:49;12.80;99.90
33382;DHT22;21342;48.786;9.166;2022-11-15T16:26:21;12.80;99.90
33382;DHT22;21342;48.786;9.166;2022-11-15T16:28:48;12.80;99.90